createdAt,value
2023-11-05T00:00:20.555Z,1.00
2023-11-05T00:02:47.730Z,1.00
2023-11-05T00:05:16.090Z,1.00
2023-11-05T00:07:43.360Z,1.00
2023-11-05T00:10:11.597Z,1.00
2023-11-05T00:12:38.944Z,1.00
2023-11-05T00:15:06.868Z,1.00
2023-11-05T00:17:35.332Z,1.00
2023-11-05T00:20:08.437Z,99.90
2023-11-05T00:22:36.034Z,99.90
2023-11-05T00:25:03.204Z,99.90
2023-11-05T00:27:30.248Z,99.90
2023-11-05T00:29:58.708Z,1.00
2023-11-05T00:32:25.917Z,1.00
2023-11-05T00:34:52.985Z,1.00
2023-11-05T00:37:20.317Z,1.00
2023-11-05T00:39:47.381Z,1.00
2023-11-05T00:42:14.345Z,1.00
2023-11-05T00:44:41.457Z,1.00
2023-11-05T00:47:08.607Z,1.00
2023-11-05T00:49:35.693Z,1.00
2023-11-05T00:52:03.832Z,1.00
2023-11-05T00:54:31.109Z,1.00
2023-11-05T00:56:58.106Z,1.00
2023-11-05T00:59:25.190Z,1.00
2023-11-05T01:01:52.217Z,1.00
2023-11-05T01:04:19.389Z,1.00
2023-11-05T01:06:46.544Z,1.00
2023-11-05T01:09:13.652Z,1.00
2023-11-05T01:11:42.340Z,1.00
2023-11-05T01:14:09.425Z,1.00
2023-11-05T01:16:36.661Z,1.00
2023-11-05T01:19:04.424Z,1.00
2023-11-05T01:21:31.415Z,1.00
2023-11-05T01:23:58.600Z,1.00
2023-11-05T01:26:25.814Z,1.00
2023-11-05T01:28:52.776Z,1.00
2023-11-05T01:31:19.782Z,1.00
2023-11-05T01:33:46.815Z,1.00
2023-11-05T01:36:13.795Z,1.00
2023-11-05T01:38:40.917Z,1.00
2023-11-05T01:41:07.971Z,1.00
2023-11-05T01:43:35.308Z,1.00
2023-11-05T01:46:02.505Z,1.00
2023-11-05T01:48:29.798Z,1.00
2023-11-05T01:50:57.289Z,1.00
2023-11-05T01:53:25.330Z,1.00
2023-11-05T01:55:52.470Z,1.00
2023-11-05T01:58:20.097Z,1.00
2023-11-05T02:00:47.883Z,1.00
2023-11-05T02:03:15.739Z,3.70
2023-11-05T02:05:42.849Z,3.00
2023-11-05T02:08:09.933Z,3.10
2023-11-05T02:10:36.970Z,2.60
2023-11-05T02:13:04.641Z,1.00
2023-11-05T02:15:31.795Z,2.60
2023-11-05T02:17:59.040Z,7.30
2023-11-05T02:20:26.590Z,20.70
2023-11-05T02:22:57.745Z,37.30
2023-11-05T02:25:24.992Z,47.00
2023-11-05T02:27:53.378Z,75.60
2023-11-05T02:30:21.433Z,84.10
2023-11-05T02:32:48.633Z,83.80
2023-11-05T02:35:16.152Z,90.00
2023-11-05T02:37:43.174Z,95.70
2023-11-05T02:40:11.763Z,99.90
2023-11-05T02:42:39.380Z,99.90
2023-11-05T02:45:07.031Z,99.30
2023-11-05T02:47:34.314Z,95.00
2023-11-05T02:50:01.563Z,92.20
2023-11-05T02:52:28.624Z,95.10
2023-11-05T02:54:55.781Z,95.40
2023-11-05T02:57:23.036Z,96.10
2023-11-05T02:59:50.777Z,98.90
2023-11-05T03:02:17.930Z,99.90
2023-11-05T03:04:45.414Z,99.90
2023-11-05T03:07:14.363Z,99.90
2023-11-05T03:09:41.709Z,99.90
2023-11-05T03:12:08.925Z,99.90
2023-11-05T03:14:36.183Z,99.90
2023-11-05T03:17:03.229Z,99.90
2023-11-05T03:19:30.358Z,99.90
2023-11-05T03:21:57.484Z,99.90
2023-11-05T03:24:24.478Z,99.90
2023-11-05T03:26:51.624Z,99.90
2023-11-05T03:29:19.564Z,99.90
2023-11-05T03:31:49.343Z,99.90
2023-11-05T03:34:16.729Z,99.90
2023-11-05T03:36:43.730Z,99.90
2023-11-05T03:39:10.803Z,99.90
2023-11-05T03:41:37.920Z,99.90
2023-11-05T03:44:05.524Z,99.90
2023-11-05T03:46:32.563Z,99.90
2023-11-05T03:48:59.671Z,99.90
2023-11-05T03:51:27.165Z,99.90
2023-11-05T03:53:54.228Z,99.90
2023-11-05T03:56:21.396Z,99.90
2023-11-05T03:58:48.590Z,99.90
2023-11-05T04:01:21.288Z,99.90
2023-11-05T04:03:48.402Z,99.90
2023-11-05T04:06:18.969Z,99.90
2023-11-05T04:08:48.354Z,99.90
2023-11-05T04:11:16.006Z,99.90
2023-11-05T04:13:49.520Z,99.90
2023-11-05T04:16:16.831Z,99.90
2023-11-05T04:18:45.420Z,99.90
2023-11-05T04:21:12.346Z,99.90
2023-11-05T04:23:40.541Z,99.90
2023-11-05T04:26:07.894Z,99.90
2023-11-05T04:28:35.251Z,1.00
2023-11-05T04:31:02.378Z,1.00
2023-11-05T04:33:29.417Z,1.00
2023-11-05T04:35:56.559Z,1.00
2023-11-05T04:38:23.578Z,1.00
2023-11-05T04:40:50.717Z,1.00
2023-11-05T04:43:19.061Z,1.00
2023-11-05T04:45:46.192Z,1.00
2023-11-05T04:48:13.535Z,1.00
2023-11-05T04:50:41.285Z,1.00
2023-11-05T04:53:08.698Z,1.00
2023-11-05T04:55:35.869Z,1.00
2023-11-05T04:58:03.142Z,99.90
2023-11-05T05:00:30.687Z,99.90
2023-11-05T05:02:57.925Z,99.90
2023-11-05T05:05:25.247Z,99.90
2023-11-05T05:07:52.644Z,99.90
2023-11-05T05:10:19.725Z,99.90
2023-11-05T05:12:46.684Z,99.90
2023-11-05T05:15:14.232Z,99.90
2023-11-05T05:17:41.178Z,99.90
2023-11-05T05:20:09.834Z,61.70
2023-11-05T05:22:37.066Z,3.60
2023-11-05T05:25:04.727Z,1.00
2023-11-05T05:27:32.308Z,1.00
2023-11-05T05:30:01.227Z,1.00
2023-11-05T05:32:28.468Z,1.00
2023-11-05T05:34:55.667Z,1.00
2023-11-05T05:37:22.650Z,1.00
2023-11-05T05:39:50.130Z,1.00
2023-11-05T05:42:17.199Z,1.00
2023-11-05T05:44:44.337Z,1.00
2023-11-05T05:47:11.376Z,1.00
2023-11-05T05:49:38.532Z,1.00
2023-11-05T05:52:05.805Z,1.00
2023-11-05T05:54:32.895Z,1.00
2023-11-05T05:57:00.009Z,1.00
2023-11-05T05:59:27.118Z,1.00
2023-11-05T06:01:54.315Z,1.00
2023-11-05T06:04:21.714Z,1.00
2023-11-05T06:06:48.837Z,1.00
2023-11-05T06:09:20.956Z,1.00
2023-11-05T06:11:48.692Z,1.00
2023-11-05T06:14:15.953Z,1.00
2023-11-05T06:16:43.079Z,1.00
2023-11-05T06:19:10.222Z,99.90
2023-11-05T06:21:37.886Z,99.90
2023-11-05T06:24:05.187Z,99.90
2023-11-05T06:26:32.221Z,99.90
2023-11-05T06:28:59.265Z,99.90
2023-11-05T06:31:26.372Z,99.90
2023-11-05T06:33:53.470Z,99.90
2023-11-05T06:36:21.106Z,99.90
2023-11-05T06:38:48.210Z,99.90
2023-11-05T06:41:15.287Z,99.90
2023-11-05T06:43:42.453Z,99.90
2023-11-05T06:46:09.528Z,99.90
2023-11-05T06:48:37.770Z,99.90
2023-11-05T06:51:06.137Z,99.90
2023-11-05T06:53:33.271Z,99.90
2023-11-05T06:56:00.319Z,99.90
2023-11-05T06:58:27.395Z,99.90
2023-11-05T07:00:54.473Z,99.90
2023-11-05T07:03:25.544Z,99.90
2023-11-05T07:05:53.475Z,99.90
2023-11-05T07:08:20.813Z,99.90
2023-11-05T07:10:48.010Z,99.90
2023-11-05T07:13:15.173Z,99.90
2023-11-05T07:15:42.227Z,1.00
2023-11-05T07:18:12.078Z,1.00
2023-11-05T07:20:40.760Z,1.00
2023-11-05T07:23:07.871Z,1.00
2023-11-05T07:25:34.836Z,1.00
2023-11-05T07:28:01.881Z,1.00
2023-11-05T07:30:28.931Z,1.00
2023-11-05T07:32:56.302Z,1.00
2023-11-05T07:35:24.711Z,1.00
2023-11-05T07:37:51.799Z,1.00
2023-11-05T07:40:18.884Z,1.00
2023-11-05T07:42:45.893Z,1.00
2023-11-05T07:45:14.158Z,1.00
2023-11-05T07:47:41.272Z,1.00
2023-11-05T07:50:12.375Z,2.90
2023-11-05T07:52:42.631Z,12.90
2023-11-05T07:55:09.913Z,17.30
2023-11-05T07:57:37.527Z,27.80
2023-11-05T08:00:04.911Z,41.40
2023-11-05T08:02:32.643Z,48.80
2023-11-05T08:04:59.772Z,56.80
2023-11-05T08:07:27.232Z,68.40
2023-11-05T08:09:55.470Z,72.90
2023-11-05T08:12:22.798Z,65.00
2023-11-05T08:14:49.988Z,1.00
2023-11-05T08:17:17.065Z,1.00
2023-11-05T08:19:44.143Z,1.00
2023-11-05T08:22:12.410Z,1.00
2023-11-05T08:24:39.538Z,1.00
2023-11-05T08:27:06.503Z,1.00
2023-11-05T08:29:35.108Z,1.00
2023-11-05T08:32:02.122Z,1.00
2023-11-05T08:34:29.255Z,1.00
2023-11-05T08:36:56.317Z,1.00
2023-11-05T08:39:23.456Z,1.00
2023-11-05T08:41:50.527Z,1.00
2023-11-05T08:44:17.786Z,1.00
2023-11-05T08:46:45.982Z,1.00
2023-11-05T08:49:13.108Z,1.00
2023-11-05T08:51:40.160Z,99.90
2023-11-05T08:54:07.113Z,99.90
2023-11-05T08:56:34.190Z,99.90
2023-11-05T08:59:01.209Z,99.90
2023-11-05T09:01:30.518Z,99.90
2023-11-05T09:03:57.538Z,99.90
2023-11-05T09:06:26.451Z,99.90
2023-11-05T09:08:53.549Z,99.90
2023-11-05T09:11:21.503Z,99.90
2023-11-05T09:13:48.516Z,99.90
2023-11-05T09:16:16.617Z,99.90
2023-11-05T09:18:43.779Z,99.90
2023-11-05T09:21:10.819Z,99.90
2023-11-05T09:23:37.799Z,99.90
2023-11-05T09:26:04.853Z,85.20
2023-11-05T09:28:32.640Z,52.20
2023-11-05T09:31:01.086Z,6.80
2023-11-05T09:33:28.105Z,1.00
2023-11-05T09:35:55.292Z,1.00
2023-11-05T09:38:22.461Z,1.00
2023-11-05T09:40:49.762Z,1.00
2023-11-05T09:43:17.097Z,1.00
2023-11-05T09:45:45.200Z,1.00
2023-11-05T09:48:15.292Z,1.00
2023-11-05T09:50:43.472Z,1.00
2023-11-05T09:53:15.954Z,1.00
2023-11-05T09:55:45.399Z,1.00
2023-11-05T09:58:14.210Z,1.00
2023-11-05T10:00:41.567Z,1.00
2023-11-05T10:03:10.350Z,1.00
2023-11-05T10:05:42.339Z,1.00
2023-11-05T10:08:10.196Z,1.00
2023-11-05T10:10:38.527Z,1.00
2023-11-05T10:13:08.882Z,1.00
2023-11-05T10:15:39.769Z,1.00
2023-11-05T10:18:08.294Z,1.00
2023-11-05T10:20:47.802Z,1.00
2023-11-05T10:23:15.018Z,1.00
2023-11-05T10:25:47.039Z,1.00
2023-11-05T10:28:15.402Z,1.00
2023-11-05T10:30:43.103Z,1.00
2023-11-05T10:33:12.339Z,1.00
2023-11-05T10:35:41.320Z,1.00
2023-11-05T10:38:12.041Z,1.00
2023-11-05T10:40:39.738Z,1.00
2023-11-05T10:43:08.394Z,1.00
2023-11-05T10:45:36.191Z,1.00
2023-11-05T10:48:03.957Z,1.00
2023-11-05T10:50:31.560Z,1.00
2023-11-05T10:53:00.503Z,1.00
2023-11-05T10:55:34.473Z,1.00
2023-11-05T10:58:14.532Z,99.90
2023-11-05T11:00:59.477Z,99.90
2023-11-05T11:03:29.955Z,99.90
2023-11-05T11:05:58.357Z,99.90
2023-11-05T11:08:27.742Z,99.90
2023-11-05T11:11:20.859Z,99.90
2023-11-05T11:13:58.839Z,99.90
2023-11-05T11:16:37.161Z,99.90
2023-11-05T11:19:06.840Z,1.00
2023-11-05T11:21:34.699Z,1.00
2023-11-05T11:24:06.249Z,1.00
2023-11-05T11:26:37.648Z,1.00
2023-11-05T11:29:06.374Z,1.00
2023-11-05T11:31:34.214Z,99.90
2023-11-05T11:34:01.243Z,99.90
2023-11-05T11:36:28.295Z,99.90
2023-11-05T11:38:55.269Z,99.90
2023-11-05T11:41:22.853Z,1.00
2023-11-05T11:43:50.308Z,1.00
2023-11-05T11:46:23.345Z,1.00
2023-11-05T11:48:50.605Z,1.00
2023-11-05T11:51:21.197Z,1.00
2023-11-05T11:53:49.095Z,1.00
2023-11-05T11:56:16.133Z,1.00
2023-11-05T11:58:44.112Z,1.00
2023-11-05T12:01:17.249Z,1.00
2023-11-05T12:03:45.055Z,1.00
2023-11-05T12:06:12.197Z,1.00
2023-11-05T12:08:50.163Z,1.00
2023-11-05T12:11:20.618Z,1.00
2023-11-05T12:13:48.405Z,1.00
2023-11-05T12:16:18.727Z,1.00
2023-11-05T12:18:46.617Z,1.00
2023-11-05T12:21:14.921Z,1.00
2023-11-05T12:23:42.747Z,1.00
2023-11-05T12:26:10.925Z,1.00
2023-11-05T12:28:39.071Z,1.00
2023-11-05T12:31:08.244Z,1.00
2023-11-05T12:33:39.392Z,1.00
2023-11-05T12:36:08.357Z,1.00
2023-11-05T12:38:35.917Z,1.00
2023-11-05T12:41:03.061Z,1.00
2023-11-05T12:43:30.357Z,1.00
2023-11-05T12:45:57.821Z,1.00
2023-11-05T12:48:31.513Z,1.00
2023-11-05T12:51:01.368Z,1.00
2023-11-05T12:53:28.640Z,1.00
2023-11-05T12:55:59.796Z,1.00
2023-11-05T12:58:26.745Z,1.00
2023-11-05T13:00:53.771Z,1.00
2023-11-05T13:03:20.819Z,1.00
2023-11-05T13:05:48.350Z,1.00
2023-11-05T13:08:15.488Z,1.00
2023-11-05T13:10:43.412Z,1.00
2023-11-05T13:13:10.504Z,1.00
2023-11-05T13:15:38.463Z,1.00
2023-11-05T13:18:05.665Z,1.00
2023-11-05T13:20:33.655Z,1.00
2023-11-05T13:23:04.945Z,1.00
2023-11-05T13:25:32.531Z,1.00
2023-11-05T13:28:00.843Z,1.00
2023-11-05T13:30:30.614Z,1.00
2023-11-05T13:32:57.692Z,1.00
2023-11-05T13:35:26.695Z,1.00
2023-11-05T13:37:53.739Z,1.00
2023-11-05T13:40:21.536Z,1.00
2023-11-05T13:42:48.885Z,1.00
2023-11-05T13:45:15.910Z,1.00
2023-11-05T13:47:42.964Z,1.00
2023-11-05T13:50:10.209Z,1.00
2023-11-05T13:52:37.658Z,1.00
2023-11-05T13:55:06.775Z,20.40
2023-11-05T13:57:33.904Z,44.80
2023-11-05T14:00:00.990Z,73.50
2023-11-05T14:02:28.001Z,92.30
2023-11-05T14:04:55.098Z,99.90
2023-11-05T14:07:22.213Z,99.90
2023-11-05T14:09:49.442Z,99.90
2023-11-05T14:12:16.502Z,99.90
2023-11-05T14:14:43.458Z,99.90
2023-11-05T14:17:11.342Z,99.90
2023-11-05T14:19:38.351Z,99.90
2023-11-05T14:22:05.689Z,99.90
2023-11-05T14:24:34.043Z,99.90
2023-11-05T14:27:04.450Z,99.90
2023-11-05T14:29:33.033Z,99.90
2023-11-05T14:32:00.564Z,99.90
2023-11-05T14:34:27.597Z,99.90
2023-11-05T14:36:54.668Z,99.90
2023-11-05T14:39:22.196Z,99.90
2023-11-05T14:41:50.324Z,99.90
2023-11-05T14:44:17.558Z,99.90
2023-11-05T14:46:44.631Z,99.90
2023-11-05T14:49:11.743Z,99.90
2023-11-05T14:51:38.850Z,99.90
2023-11-05T14:54:05.961Z,99.90
2023-11-05T14:56:32.892Z,99.90
2023-11-05T14:59:01.857Z,99.90
2023-11-05T15:01:29.205Z,99.90
2023-11-05T15:03:56.304Z,99.90
2023-11-05T15:06:25.008Z,99.90
2023-11-05T15:08:52.079Z,99.90
2023-11-05T15:11:19.054Z,99.90
2023-11-05T15:13:46.058Z,99.90
2023-11-05T15:16:13.013Z,99.90
2023-11-05T15:18:40.057Z,99.90
2023-11-05T15:21:07.900Z,99.90
2023-11-05T15:23:34.970Z,99.90
2023-11-05T15:26:02.007Z,99.90
2023-11-05T15:28:30.989Z,99.90
2023-11-05T15:31:00.800Z,1.00
2023-11-05T15:33:36.093Z,1.00
2023-11-05T15:36:03.021Z,1.00
2023-11-05T15:38:33.214Z,1.00
2023-11-05T15:41:00.246Z,1.00
2023-11-05T15:43:27.690Z,1.00
2023-11-05T15:45:54.668Z,1.00
2023-11-05T15:48:22.565Z,29.30
2023-11-05T15:50:51.052Z,58.10
2023-11-05T15:53:19.580Z,88.70
2023-11-05T15:55:46.710Z,99.90
2023-11-05T15:58:14.286Z,99.90
2023-11-05T16:00:41.397Z,99.90
2023-11-05T16:03:08.370Z,99.90
2023-11-05T16:05:35.431Z,99.90
2023-11-05T16:08:02.623Z,99.90
2023-11-05T16:10:29.807Z,99.90
2023-11-05T16:12:56.860Z,99.90
2023-11-05T16:15:23.830Z,99.90
2023-11-05T16:17:50.897Z,99.90
2023-11-05T16:20:17.928Z,99.90
2023-11-05T16:22:45.357Z,99.90
2023-11-05T16:25:12.413Z,99.90
2023-11-05T16:27:39.519Z,99.90
2023-11-05T16:30:07.241Z,99.90
2023-11-05T16:32:34.791Z,99.90
2023-11-05T16:35:02.115Z,99.90
2023-11-05T16:37:29.202Z,99.90
2023-11-05T16:39:56.157Z,99.90
2023-11-05T16:42:23.175Z,99.90
2023-11-05T16:44:51.802Z,99.90
2023-11-05T16:47:19.179Z,99.90
2023-11-05T16:49:46.219Z,99.90
2023-11-05T16:52:15.958Z,90.80
2023-11-05T16:54:44.267Z,78.90
2023-11-05T16:57:11.778Z,64.40
2023-11-05T16:59:39.869Z,55.10
2023-11-05T17:02:08.727Z,50.30
2023-11-05T17:04:35.796Z,35.70
2023-11-05T17:07:04.591Z,23.50
2023-11-05T17:09:34.156Z,24.40
2023-11-05T17:12:01.918Z,13.00
2023-11-05T17:14:28.861Z,8.30
2023-11-05T17:16:55.895Z,1.00
2023-11-05T17:19:22.868Z,1.00
2023-11-05T17:21:50.383Z,1.00
2023-11-05T17:24:17.655Z,1.00
2023-11-05T17:26:51.790Z,1.00
2023-11-05T17:29:22.032Z,1.00
2023-11-05T17:31:49.261Z,1.00
2023-11-05T17:34:16.437Z,1.00
2023-11-05T17:36:43.771Z,99.90
2023-11-05T17:39:12.048Z,99.90
2023-11-05T17:41:42.058Z,99.90
2023-11-05T17:44:09.113Z,99.90
2023-11-05T17:46:36.304Z,99.90
2023-11-05T17:49:04.333Z,99.90
2023-11-05T17:51:31.869Z,99.90
2023-11-05T17:53:59.306Z,99.90
2023-11-05T17:56:29.459Z,99.90
2023-11-05T17:58:57.619Z,99.90
2023-11-05T18:01:24.720Z,99.90
2023-11-05T18:03:51.778Z,99.90
2023-11-05T18:06:19.173Z,99.90
2023-11-05T18:08:46.234Z,99.90
2023-11-05T18:11:13.497Z,99.90
2023-11-05T18:13:41.445Z,99.90
2023-11-05T18:16:08.549Z,99.90
2023-11-05T18:18:35.834Z,99.90
2023-11-05T18:21:02.959Z,99.90
2023-11-05T18:23:30.067Z,99.90
2023-11-05T18:25:57.177Z,99.90
2023-11-05T18:28:24.215Z,99.90
2023-11-05T18:30:51.259Z,99.90
2023-11-05T18:33:18.308Z,99.90
2023-11-05T18:35:45.537Z,99.90
2023-11-05T18:38:12.547Z,99.90
2023-11-05T18:40:39.768Z,99.90
2023-11-05T18:43:06.901Z,99.90
2023-11-05T18:45:33.852Z,99.90
2023-11-05T18:48:01.021Z,99.90
2023-11-05T18:50:28.058Z,99.90
2023-11-05T18:52:55.225Z,99.90
2023-11-05T18:55:22.249Z,99.90
2023-11-05T18:57:50.042Z,99.90
2023-11-05T19:00:17.161Z,99.90
2023-11-05T19:02:45.329Z,99.90
2023-11-05T19:05:12.974Z,99.90
2023-11-05T19:07:40.324Z,99.90
2023-11-05T19:10:08.927Z,99.90
2023-11-05T19:12:36.118Z,99.90
2023-11-05T19:15:03.183Z,99.90
2023-11-05T19:17:30.262Z,99.90
2023-11-05T19:19:57.955Z,99.90
2023-11-05T19:22:25.282Z,96.80
2023-11-05T19:24:52.456Z,6.30
2023-11-05T19:27:19.591Z,1.00
2023-11-05T19:29:46.597Z,1.00
2023-11-05T19:32:13.678Z,1.00
2023-11-05T19:34:41.921Z,1.00
2023-11-05T19:37:09.005Z,1.00
2023-11-05T19:39:37.076Z,1.00
2023-11-05T19:42:04.631Z,1.00
2023-11-05T19:44:33.540Z,1.00
2023-11-05T19:47:04.541Z,1.00
2023-11-05T19:49:32.913Z,1.00
2023-11-05T19:52:02.182Z,1.00
2023-11-05T19:54:29.188Z,1.00
2023-11-05T19:56:56.942Z,1.00
2023-11-05T19:59:23.913Z,1.00
2023-11-05T20:01:51.047Z,1.00
2023-11-05T20:04:18.054Z,1.00
2023-11-05T20:06:54.530Z,1.00
2023-11-05T20:09:21.510Z,1.00
2023-11-05T20:11:48.700Z,1.00
2023-11-05T20:14:15.986Z,1.00
2023-11-05T20:16:46.068Z,99.90
2023-11-05T20:19:13.323Z,99.90
2023-11-05T20:21:40.833Z,99.90
2023-11-05T20:24:08.103Z,99.90
2023-11-05T20:26:35.110Z,99.90
2023-11-05T20:29:10.053Z,99.90
2023-11-05T20:31:38.259Z,99.90
2023-11-05T20:34:08.325Z,99.90
2023-11-05T20:36:35.943Z,99.90
2023-11-05T20:39:03.138Z,99.90
2023-11-05T20:41:30.107Z,99.90
2023-11-05T20:43:57.490Z,99.90
2023-11-05T20:46:24.709Z,99.90
2023-11-05T20:48:52.141Z,99.90
2023-11-05T20:51:19.698Z,99.90
2023-11-05T20:53:46.851Z,99.90
2023-11-05T20:56:15.286Z,99.90
2023-11-05T20:58:45.581Z,99.90
2023-11-05T21:01:12.985Z,99.90
2023-11-05T21:03:40.503Z,99.90
2023-11-05T21:06:07.816Z,99.90
2023-11-05T21:08:34.908Z,99.90
2023-11-05T21:11:08.840Z,99.90
2023-11-05T21:13:36.627Z,99.90
2023-11-05T21:16:03.810Z,99.90
2023-11-05T21:18:30.875Z,99.90
2023-11-05T21:20:58.015Z,99.90
2023-11-05T21:23:24.934Z,99.90
2023-11-05T21:25:51.998Z,99.90
2023-11-05T21:28:18.985Z,99.90
2023-11-05T21:30:46.006Z,99.90
2023-11-05T21:33:13.148Z,99.90
2023-11-05T21:35:40.255Z,99.90
2023-11-05T21:38:07.457Z,99.90
2023-11-05T21:40:34.505Z,99.90
2023-11-05T21:43:01.589Z,99.90
2023-11-05T21:45:29.779Z,99.90
2023-11-05T21:47:57.101Z,99.90
2023-11-05T21:50:26.295Z,99.90
2023-11-05T21:52:53.705Z,99.90
2023-11-05T21:55:21.534Z,99.90
2023-11-05T21:57:48.556Z,99.90
2023-11-05T22:00:15.679Z,99.90
2023-11-05T22:02:42.788Z,99.90
2023-11-05T22:05:10.260Z,99.90
2023-11-05T22:07:37.967Z,99.90
2023-11-05T22:10:06.030Z,99.90
2023-11-05T22:12:33.794Z,99.90
2023-11-05T22:15:00.815Z,99.90
2023-11-05T22:17:27.874Z,99.90
2023-11-05T22:19:55.102Z,99.90
2023-11-05T22:22:23.649Z,99.90
2023-11-05T22:24:53.045Z,99.90
2023-11-05T22:27:20.478Z,99.90
2023-11-05T22:29:47.652Z,99.90
2023-11-05T22:32:16.778Z,99.90
2023-11-05T22:34:44.171Z,99.90
2023-11-05T22:37:11.819Z,99.90
2023-11-05T22:39:39.490Z,99.90
2023-11-05T22:42:07.232Z,99.90
2023-11-05T22:44:34.313Z,99.90
2023-11-05T22:47:01.359Z,99.90
2023-11-05T22:49:28.548Z,99.90
2023-11-05T22:51:55.513Z,99.90
2023-11-05T22:54:22.729Z,99.90
2023-11-05T22:56:51.092Z,99.90
2023-11-05T22:59:18.067Z,99.90
2023-11-05T23:01:45.128Z,99.90
2023-11-05T23:04:12.160Z,99.90
2023-11-05T23:06:39.223Z,99.90
2023-11-05T23:09:06.393Z,99.90
2023-11-05T23:11:36.391Z,99.90
2023-11-05T23:14:04.591Z,99.90
2023-11-05T23:16:31.764Z,99.90
2023-11-05T23:18:58.813Z,99.90
2023-11-05T23:21:26.307Z,99.90
2023-11-05T23:23:53.411Z,99.90
2023-11-05T23:26:20.528Z,99.90
2023-11-05T23:28:47.617Z,99.90
2023-11-05T23:31:14.805Z,99.90
2023-11-05T23:33:42.156Z,99.90
2023-11-05T23:36:09.411Z,99.90
2023-11-05T23:38:37.054Z,99.90
2023-11-05T23:41:05.179Z,99.90
2023-11-05T23:43:32.661Z,99.90
2023-11-05T23:45:59.762Z,99.90
2023-11-05T23:48:26.886Z,99.90
2023-11-05T23:50:54.148Z,99.90
2023-11-05T23:53:21.214Z,99.90
2023-11-05T23:55:48.481Z,99.90
2023-11-05T23:58:17.004Z,99.90
